sensor_id;sensor_type;location;lat;lon;timestamp;temperature;humidity
8565;DHT22;4320;51.498;6.556;2023-03-01T00:00:20;2.50;1.00
8565;DHT22;4320;51.498;6.556;2023-03-01T00:02:45;2.40;1.00
8565;DHT22;4320;51.498;6.556;2023-03-01T00:05:11;2.40;1.00
8565;DHT22;4320;51.498;6.556;2023-03-01T00:07:36;2.40;1.00
8565;DHT22;4320;51.498;6.556;2023-03-01T00:10:02;2.40;1.00
8565;DHT22;4320;51.498;6.556;2023-03-01T00:12:28;2.30;1.00
8565;DHT22;4320;51.498;6.556;2023-03-01T00:14:54;2.30;1.00
8565;DHT22;4320;51.498;6.556;2023-03-01T00:17:20;2.30;1.00
8565;DHT22;4320;51.498;6.556;2023-03-01T00:19:45;2.30;1.00
8565;DHT22;4320;51.498;6.556;2023-03-01T00:22:11;2.30;1.00
8565;DHT22;4320;51.498;6.556;2023-03-01T00:24:36;2.30;1.00
8565;DHT22;4320;51.498;6.556;2023-03-01T00:27:02;2.30;1.00
8565;DHT22;4320;51.498;6.556;2023-03-01T00:29:28;2.30;1.00
8565;DHT22;4320;51.498;6.556;2023-03-01T00:31:53;2.20;1.00
8565;DHT22;4320;51.498;6.556;2023-03-01T00:34:19;2.30;1.00
8565;DHT22;4320;51.498;6.556;2023-03-01T00:36:44;2.30;1.00
8565;DHT22;4320;51.498;6.556;2023-03-01T00:39:13;2.30;1.00
8565;DHT22;4320;51.498;6.556;2023-03-01T00:41:39;2.30;1.00
8565;DHT22;4320;51.498;6.556;2023-03-01T00:44:05;2.20;1.00
8565;DHT22;4320;51.498;6.556;2023-03-01T00:46:31;2.20;1.00
8565;DHT22;4320;51.498;6.556;2023-03-01T00:48:57;2.20;1.00
8565;DHT22;4320;51.498;6.556;2023-03-01T00:51:25;2.20;1.00
8565;DHT22;4320;51.498;6.556;2023-03-01T00:53:54;2.20;1.00
8565;DHT22;4320;51.498;6.556;2023-03-01T00:56:20;2.20;1.00
8565;DHT22;4320;51.498;6.556;2023-03-01T00:58:46;2.20;1.00
8565;DHT22;4320;51.498;6.556;2023-03-01T01:01:15;2.20;1.00
8565;DHT22;4320;51.498;6.556;2023-03-01T01:03:58;2.10;1.00
8565;DHT22;4320;51.498;6.556;2023-03-01T01:06:30;2.10;1.00
8565;DHT22;4320;51.498;6.556;2023-03-01T01:08:56;2.10;1.00
8565;DHT22;4320;51.498;6.556;2023-03-01T01:11:24;2.10;1.00
8565;DHT22;4320;51.498;6.556;2023-03-01T01:13:50;2.10;1.00
8565;DHT22;4320;51.498;6.556;2023-03-01T01:16:17;2.10;1.00
8565;DHT22;4320;51.498;6.556;2023-03-01T01:18:44;2.10;1.00
8565;DHT22;4320;51.498;6.556;2023-03-01T01:21:12;2.10;1.00
8565;DHT22;4320;51.498;6.556;2023-03-01T01:23:39;2.00;1.00
8565;DHT22;4320;51.498;6.556;2023-03-01T01:26:07;2.00;1.00
8565;DHT22;4320;51.498;6.556;2023-03-01T01:28:33;1.90;1.00
8565;DHT22;4320;51.498;6.556;2023-03-01T01:30:59;1.90;1.00
8565;DHT22;4320;51.498;6.556;2023-03-01T01:33:25;1.90;1.00
8565;DHT22;4320;51.498;6.556;2023-03-01T01:35:50;1.90;1.00
8565;DHT22;4320;51.498;6.556;2023-03-01T01:38:16;1.90;1.00
8565;DHT22;4320;51.498;6.556;2023-03-01T01:40:45;1.80;1.00
8565;DHT22;4320;51.498;6.556;2023-03-01T01:43:41;1.80;1.00
8565;DHT22;4320;51.498;6.556;2023-03-01T01:46:23;1.80;1.00
8565;DHT22;4320;51.498;6.556;2023-03-01T01:49:00;1.80;1.00
8565;DHT22;4320;51.498;6.556;2023-03-01T01:51:33;1.80;1.00
8565;DHT22;4320;51.498;6.556;2023-03-01T01:54:17;1.80;1.00
8565;DHT22;4320;51.498;6.556;2023-03-01T01:56:56;1.80;1.00
8565;DHT22;4320;51.498;6.556;2023-03-01T01:59:23;1.80;1.00
8565;DHT22;4320;51.498;6.556;2023-03-01T02:01:51;1.80;1.00
8565;DHT22;4320;51.498;6.556;2023-03-01T02:04:17;1.70;1.00
8565;DHT22;4320;51.498;6.556;2023-03-01T02:06:51;1.80;1.00
8565;DHT22;4320;51.498;6.556;2023-03-01T02:09:19;1.70;1.00
8565;DHT22;4320;51.498;6.556;2023-03-01T02:11:47;1.70;1.00
8565;DHT22;4320;51.498;6.556;2023-03-01T02:14:14;1.70;1.00
8565;DHT22;4320;51.498;6.556;2023-03-01T02:16:41;1.70;1.00
8565;DHT22;4320;51.498;6.556;2023-03-01T02:19:12;1.70;1.00
8565;DHT22;4320;51.498;6.556;2023-03-01T02:27:54;1.60;1.00
8565;DHT22;4320;51.498;6.556;2023-03-01T02:30:24;1.60;1.00
8565;DHT22;4320;51.498;6.556;2023-03-01T02:32:51;1.50;1.00
8565;DHT22;4320;51.498;6.556;2023-03-01T02:35:18;1.40;1.00
8565;DHT22;4320;51.498;6.556;2023-03-01T02:37:44;1.40;1.00
8565;DHT22;4320;51.498;6.556;2023-03-01T02:40:18;1.30;1.00
8565;DHT22;4320;51.498;6.556;2023-03-01T02:42:53;1.40;1.00
8565;DHT22;4320;51.498;6.556;2023-03-01T02:45:19;1.40;1.00
8565;DHT22;4320;51.498;6.556;2023-03-01T02:47:45;1.50;1.00
8565;DHT22;4320;51.498;6.556;2023-03-01T02:53:09;1.50;1.00
8565;DHT22;4320;51.498;6.556;2023-03-01T02:55:36;1.40;1.00
8565;DHT22;4320;51.498;6.556;2023-03-01T02:58:03;1.40;1.00
8565;DHT22;4320;51.498;6.556;2023-03-01T03:00:37;1.40;1.00
8565;DHT22;4320;51.498;6.556;2023-03-01T03:03:05;1.40;1.00
8565;DHT22;4320;51.498;6.556;2023-03-01T03:05:32;1.40;1.00
8565;DHT22;4320;51.498;6.556;2023-03-01T03:08:00;1.40;1.00
8565;DHT22;4320;51.498;6.556;2023-03-01T03:10:28;1.40;1.00
8565;DHT22;4320;51.498;6.556;2023-03-01T03:13:14;1.40;1.00
8565;DHT22;4320;51.498;6.556;2023-03-01T03:15:41;1.30;1.00
8565;DHT22;4320;51.498;6.556;2023-03-01T03:18:10;1.40;1.00
8565;DHT22;4320;51.498;6.556;2023-03-01T03:20:36;1.30;1.00
8565;DHT22;4320;51.498;6.556;2023-03-01T03:23:03;1.40;1.00
8565;DHT22;4320;51.498;6.556;2023-03-01T03:25:29;1.30;1.00
8565;DHT22;4320;51.498;6.556;2023-03-01T03:27:56;1.30;1.00
8565;DHT22;4320;51.498;6.556;2023-03-01T03:30:26;1.30;1.00
8565;DHT22;4320;51.498;6.556;2023-03-01T03:32:52;1.30;1.00
8565;DHT22;4320;51.498;6.556;2023-03-01T03:35:20;1.20;1.00
8565;DHT22;4320;51.498;6.556;2023-03-01T03:37:46;1.20;1.00
8565;DHT22;4320;51.498;6.556;2023-03-01T03:42:57;1.20;1.00
8565;DHT22;4320;51.498;6.556;2023-03-01T03:45:23;1.20;1.00
8565;DHT22;4320;51.498;6.556;2023-03-01T03:47:48;1.20;1.00
8565;DHT22;4320;51.498;6.556;2023-03-01T03:50:16;1.10;1.00
8565;DHT22;4320;51.498;6.556;2023-03-01T03:52:42;1.00;1.00
8565;DHT22;4320;51.498;6.556;2023-03-01T03:55:09;1.10;1.00
8565;DHT22;4320;51.498;6.556;2023-03-01T03:57:38;1.10;1.00
8565;DHT22;4320;51.498;6.556;2023-03-01T04:00:06;1.00;1.00
8565;DHT22;4320;51.498;6.556;2023-03-01T04:02:41;1.00;1.00
8565;DHT22;4320;51.498;6.556;2023-03-01T04:05:10;1.00;1.00
8565;DHT22;4320;51.498;6.556;2023-03-01T04:07:36;1.00;1.00
8565;DHT22;4320;51.498;6.556;2023-03-01T04:10:04;1.00;1.00
8565;DHT22;4320;51.498;6.556;2023-03-01T04:12:30;1.00;1.00
8565;DHT22;4320;51.498;6.556;2023-03-01T04:14:55;1.00;1.00
8565;DHT22;4320;51.498;6.556;2023-03-01T04:17:21;1.00;1.00
8565;DHT22;4320;51.498;6.556;2023-03-01T04:19:46;1.00;1.00
8565;DHT22;4320;51.498;6.556;2023-03-01T04:22:14;1.00;1.00
8565;DHT22;4320;51.498;6.556;2023-03-01T04:24:42;0.90;1.00
8565;DHT22;4320;51.498;6.556;2023-03-01T04:27:09;0.90;1.00
8565;DHT22;4320;51.498;6.556;2023-03-01T04:29:34;0.90;1.00
8565;DHT22;4320;51.498;6.556;2023-03-01T04:32:00;0.90;1.00
8565;DHT22;4320;51.498;6.556;2023-03-01T04:34:25;0.90;1.00
8565;DHT22;4320;51.498;6.556;2023-03-01T04:36:52;0.90;1.00
8565;DHT22;4320;51.498;6.556;2023-03-01T04:39:18;0.80;1.00
8565;DHT22;4320;51.498;6.556;2023-03-01T04:41:43;0.80;1.00
8565;DHT22;4320;51.498;6.556;2023-03-01T04:44:09;0.90;1.00
8565;DHT22;4320;51.498;6.556;2023-03-01T04:46:35;0.90;1.00
8565;DHT22;4320;51.498;6.556;2023-03-01T04:49:02;0.90;1.00
8565;DHT22;4320;51.498;6.556;2023-03-01T04:51:28;0.90;1.00
8565;DHT22;4320;51.498;6.556;2023-03-01T04:53:54;0.90;1.00
8565;DHT22;4320;51.498;6.556;2023-03-01T04:56:20;0.90;1.00
8565;DHT22;4320;51.498;6.556;2023-03-01T04:58:48;0.90;1.00
8565;DHT22;4320;51.498;6.556;2023-03-01T05:01:18;0.90;1.00
8565;DHT22;4320;51.498;6.556;2023-03-01T05:03:46;0.90;1.00
8565;DHT22;4320;51.498;6.556;2023-03-01T05:06:12;0.90;1.00
8565;DHT22;4320;51.498;6.556;2023-03-01T05:08:39;0.80;1.00
8565;DHT22;4320;51.498;6.556;2023-03-01T05:11:05;0.80;1.00
8565;DHT22;4320;51.498;6.556;2023-03-01T05:13:31;0.80;1.00
8565;DHT22;4320;51.498;6.556;2023-03-01T05:15:59;0.80;1.00
8565;DHT22;4320;51.498;6.556;2023-03-01T05:18:26;0.80;1.00
8565;DHT22;4320;51.498;6.556;2023-03-01T05:21:02;0.80;1.00
8565;DHT22;4320;51.498;6.556;2023-03-01T05:23:30;0.80;1.00
8565;DHT22;4320;51.498;6.556;2023-03-01T05:26:02;0.70;1.00
8565;DHT22;4320;51.498;6.556;2023-03-01T05:28:29;0.70;1.00
8565;DHT22;4320;51.498;6.556;2023-03-01T05:30:56;0.70;1.00
8565;DHT22;4320;51.498;6.556;2023-03-01T05:33:22;0.60;1.00
8565;DHT22;4320;51.498;6.556;2023-03-01T05:35:48;0.60;1.00
8565;DHT22;4320;51.498;6.556;2023-03-01T05:38:15;0.70;1.00
8565;DHT22;4320;51.498;6.556;2023-03-01T05:40:45;0.60;1.00
8565;DHT22;4320;51.498;6.556;2023-03-01T05:43:13;0.60;1.00
8565;DHT22;4320;51.498;6.556;2023-03-01T05:45:39;0.60;1.00
8565;DHT22;4320;51.498;6.556;2023-03-01T05:48:06;0.60;1.00
8565;DHT22;4320;51.498;6.556;2023-03-01T05:50:35;0.60;1.00
8565;DHT22;4320;51.498;6.556;2023-03-01T05:55:34;0.70;1.00
8565;DHT22;4320;51.498;6.556;2023-03-01T05:58:01;0.70;1.00
8565;DHT22;4320;51.498;6.556;2023-03-01T06:00:27;0.70;1.00
8565;DHT22;4320;51.498;6.556;2023-03-01T06:02:54;0.60;1.00
8565;DHT22;4320;51.498;6.556;2023-03-01T06:05:21;0.70;1.00
8565;DHT22;4320;51.498;6.556;2023-03-01T06:07:48;0.70;1.00
8565;DHT22;4320;51.498;6.556;2023-03-01T06:10:14;0.70;1.00
8565;DHT22;4320;51.498;6.556;2023-03-01T06:12:41;0.60;1.00
8565;DHT22;4320;51.498;6.556;2023-03-01T06:15:09;0.60;1.00
8565;DHT22;4320;51.498;6.556;2023-03-01T06:17:36;0.60;1.00
8565;DHT22;4320;51.498;6.556;2023-03-01T06:20:04;0.50;1.00
8565;DHT22;4320;51.498;6.556;2023-03-01T06:22:30;0.50;1.00
8565;DHT22;4320;51.498;6.556;2023-03-01T06:24:56;0.40;1.00
8565;DHT22;4320;51.498;6.556;2023-03-01T06:27:21;0.40;1.00
8565;DHT22;4320;51.498;6.556;2023-03-01T06:29:47;0.50;1.00
8565;DHT22;4320;51.498;6.556;2023-03-01T06:32:13;0.50;1.00
8565;DHT22;4320;51.498;6.556;2023-03-01T06:34:38;0.50;1.00
8565;DHT22;4320;51.498;6.556;2023-03-01T06:37:04;0.60;1.00
8565;DHT22;4320;51.498;6.556;2023-03-01T06:39:32;0.70;1.00
8565;DHT22;4320;51.498;6.556;2023-03-01T06:41:57;0.70;1.00
8565;DHT22;4320;51.498;6.556;2023-03-01T06:44:23;0.70;1.00
8565;DHT22;4320;51.498;6.556;2023-03-01T06:46:49;0.60;1.00
8565;DHT22;4320;51.498;6.556;2023-03-01T06:49:14;0.70;1.00
8565;DHT22;4320;51.498;6.556;2023-03-01T06:51:41;0.60;1.00
8565;DHT22;4320;51.498;6.556;2023-03-01T06:54:07;0.70;1.00
8565;DHT22;4320;51.498;6.556;2023-03-01T06:56:33;0.70;1.00
8565;DHT22;4320;51.498;6.556;2023-03-01T06:58:59;0.70;1.00
8565;DHT22;4320;51.498;6.556;2023-03-01T07:01:25;0.80;1.00
8565;DHT22;4320;51.498;6.556;2023-03-01T07:03:50;0.80;1.00
8565;DHT22;4320;51.498;6.556;2023-03-01T07:06:16;0.80;1.00
8565;DHT22;4320;51.498;6.556;2023-03-01T07:08:43;0.80;1.00
8565;DHT22;4320;51.498;6.556;2023-03-01T07:11:08;0.90;1.00
8565;DHT22;4320;51.498;6.556;2023-03-01T07:13:34;1.00;1.00
8565;DHT22;4320;51.498;6.556;2023-03-01T07:16:00;1.10;1.00
8565;DHT22;4320;51.498;6.556;2023-03-01T07:18:26;1.30;1.00
8565;DHT22;4320;51.498;6.556;2023-03-01T07:20:51;1.40;1.00
8565;DHT22;4320;51.498;6.556;2023-03-01T07:23:17;1.50;1.00
8565;DHT22;4320;51.498;6.556;2023-03-01T07:25:42;1.70;1.00
8565;DHT22;4320;51.498;6.556;2023-03-01T07:28:08;1.80;1.00
8565;DHT22;4320;51.498;6.556;2023-03-01T07:30:34;2.10;1.00
8565;DHT22;4320;51.498;6.556;2023-03-01T07:32:59;2.40;1.00
8565;DHT22;4320;51.498;6.556;2023-03-01T07:35:26;2.60;1.00
8565;DHT22;4320;51.498;6.556;2023-03-01T07:37:52;2.90;1.00
8565;DHT22;4320;51.498;6.556;2023-03-01T07:40:17;3.30;1.00
8565;DHT22;4320;51.498;6.556;2023-03-01T07:42:43;3.80;1.00
8565;DHT22;4320;51.498;6.556;2023-03-01T07:45:09;4.30;1.00
8565;DHT22;4320;51.498;6.556;2023-03-01T07:47:35;4.90;1.00
8565;DHT22;4320;51.498;6.556;2023-03-01T07:50:01;5.40;1.00
8565;DHT22;4320;51.498;6.556;2023-03-01T07:52:28;6.10;1.00
8565;DHT22;4320;51.498;6.556;2023-03-01T07:54:53;6.70;1.00
8565;DHT22;4320;51.498;6.556;2023-03-01T07:57:19;7.00;1.00
8565;DHT22;4320;51.498;6.556;2023-03-01T07:59:44;7.80;1.00
8565;DHT22;4320;51.498;6.556;2023-03-01T08:02:10;8.40;1.00
8565;DHT22;4320;51.498;6.556;2023-03-01T08:04:36;9.00;1.00
8565;DHT22;4320;51.498;6.556;2023-03-01T08:07:04;9.50;1.00
8565;DHT22;4320;51.498;6.556;2023-03-01T08:09:30;10.00;1.00
8565;DHT22;4320;51.498;6.556;2023-03-01T08:11:56;10.50;1.00
8565;DHT22;4320;51.498;6.556;2023-03-01T08:14:24;10.70;1.00
8565;DHT22;4320;51.498;6.556;2023-03-01T08:16:50;11.00;1.00
8565;DHT22;4320;51.498;6.556;2023-03-01T08:19:16;11.20;1.00
8565;DHT22;4320;51.498;6.556;2023-03-01T08:21:42;11.70;1.00
8565;DHT22;4320;51.498;6.556;2023-03-01T08:24:08;12.00;1.00
8565;DHT22;4320;51.498;6.556;2023-03-01T08:26:35;12.30;1.00
8565;DHT22;4320;51.498;6.556;2023-03-01T08:29:02;12.30;1.00
8565;DHT22;4320;51.498;6.556;2023-03-01T08:31:31;12.50;1.00
8565;DHT22;4320;51.498;6.556;2023-03-01T08:33:59;12.60;1.00
8565;DHT22;4320;51.498;6.556;2023-03-01T08:36:30;12.40;1.00
8565;DHT22;4320;51.498;6.556;2023-03-01T08:38:56;12.50;1.00
8565;DHT22;4320;51.498;6.556;2023-03-01T08:41:23;12.60;1.00
8565;DHT22;4320;51.498;6.556;2023-03-01T08:43:48;12.90;1.00
8565;DHT22;4320;51.498;6.556;2023-03-01T08:46:14;12.80;1.00
8565;DHT22;4320;51.498;6.556;2023-03-01T08:48:40;13.10;1.00
8565;DHT22;4320;51.498;6.556;2023-03-01T08:51:16;13.00;1.00
8565;DHT22;4320;51.498;6.556;2023-03-01T08:53:43;13.10;1.00
8565;DHT22;4320;51.498;6.556;2023-03-01T08:56:09;13.00;1.00
8565;DHT22;4320;51.498;6.556;2023-03-01T08:58:35;12.30;1.00
8565;DHT22;4320;51.498;6.556;2023-03-01T09:01:07;11.20;1.00
8565;DHT22;4320;51.498;6.556;2023-03-01T09:03:32;10.00;1.00
8565;DHT22;4320;51.498;6.556;2023-03-01T09:06:01;9.60;1.00
8565;DHT22;4320;51.498;6.556;2023-03-01T09:08:27;10.50;1.00
8565;DHT22;4320;51.498;6.556;2023-03-01T09:10:53;11.30;1.00
8565;DHT22;4320;51.498;6.556;2023-03-01T09:13:18;11.90;1.00
8565;DHT22;4320;51.498;6.556;2023-03-01T09:15:44;12.50;1.00
8565;DHT22;4320;51.498;6.556;2023-03-01T09:18:10;12.90;1.00
8565;DHT22;4320;51.498;6.556;2023-03-01T09:20:35;13.10;1.00
8565;DHT22;4320;51.498;6.556;2023-03-01T09:23:01;13.30;1.00
8565;DHT22;4320;51.498;6.556;2023-03-01T09:25:27;13.40;1.00
8565;DHT22;4320;51.498;6.556;2023-03-01T09:27:53;13.70;1.00
8565;DHT22;4320;51.498;6.556;2023-03-01T09:30:20;13.60;1.00
8565;DHT22;4320;51.498;6.556;2023-03-01T09:32:45;12.60;1.00
8565;DHT22;4320;51.498;6.556;2023-03-01T09:35:14;11.90;1.00
8565;DHT22;4320;51.498;6.556;2023-03-01T09:37:39;12.30;1.00
8565;DHT22;4320;51.498;6.556;2023-03-01T09:40:18;13.00;1.00
8565;DHT22;4320;51.498;6.556;2023-03-01T09:45:39;13.90;1.00
8565;DHT22;4320;51.498;6.556;2023-03-01T09:48:13;14.50;1.00
8565;DHT22;4320;51.498;6.556;2023-03-01T09:50:43;14.30;1.00
8565;DHT22;4320;51.498;6.556;2023-03-01T09:53:19;14.20;1.00
8565;DHT22;4320;51.498;6.556;2023-03-01T09:55:59;14.20;1.00
8565;DHT22;4320;51.498;6.556;2023-03-01T09:58:40;14.00;1.00
8565;DHT22;4320;51.498;6.556;2023-03-01T10:01:28;14.40;1.00
8565;DHT22;4320;51.498;6.556;2023-03-01T10:04:24;14.20;1.00
8565;DHT22;4320;51.498;6.556;2023-03-01T10:09:41;13.90;1.00
8565;DHT22;4320;51.498;6.556;2023-03-01T10:12:11;14.10;1.00
8565;DHT22;4320;51.498;6.556;2023-03-01T10:14:51;13.80;1.00
8565;DHT22;4320;51.498;6.556;2023-03-01T10:20:53;12.80;1.00
8565;DHT22;4320;51.498;6.556;2023-03-01T10:23:19;12.40;1.00
8565;DHT22;4320;51.498;6.556;2023-03-01T10:26:09;11.80;1.00
8565;DHT22;4320;51.498;6.556;2023-03-01T10:28:57;12.00;1.00
8565;DHT22;4320;51.498;6.556;2023-03-01T10:31:27;11.50;1.00
8565;DHT22;4320;51.498;6.556;2023-03-01T10:34:07;10.80;1.00
8565;DHT22;4320;51.498;6.556;2023-03-01T10:36:34;9.70;1.00
8565;DHT22;4320;51.498;6.556;2023-03-01T10:39:05;9.60;1.00
8565;DHT22;4320;51.498;6.556;2023-03-01T10:42:02;9.80;1.00
8565;DHT22;4320;51.498;6.556;2023-03-01T10:44:38;9.90;1.00
8565;DHT22;4320;51.498;6.556;2023-03-01T10:47:04;9.80;1.00
8565;DHT22;4320;51.498;6.556;2023-03-01T10:49:31;9.40;1.00
8565;DHT22;4320;51.498;6.556;2023-03-01T10:52:15;9.30;1.00
8565;DHT22;4320;51.498;6.556;2023-03-01T10:54:55;9.30;1.00
8565;DHT22;4320;51.498;6.556;2023-03-01T11:00:24;10.30;1.00
8565;DHT22;4320;51.498;6.556;2023-03-01T11:03:12;10.40;1.00
8565;DHT22;4320;51.498;6.556;2023-03-01T11:08:45;10.50;1.00
8565;DHT22;4320;51.498;6.556;2023-03-01T11:11:29;10.40;1.00
8565;DHT22;4320;51.498;6.556;2023-03-01T11:16:42;9.60;1.00
8565;DHT22;4320;51.498;6.556;2023-03-01T11:21:39;11.00;1.00
8565;DHT22;4320;51.498;6.556;2023-03-01T11:24:09;11.30;1.00
8565;DHT22;4320;51.498;6.556;2023-03-01T11:26:39;11.50;1.00
8565;DHT22;4320;51.498;6.556;2023-03-01T11:29:16;11.30;1.00
8565;DHT22;4320;51.498;6.556;2023-03-01T11:31:43;11.50;1.00
8565;DHT22;4320;51.498;6.556;2023-03-01T11:34:16;11.80;1.00
8565;DHT22;4320;51.498;6.556;2023-03-01T11:36:53;11.80;1.00
8565;DHT22;4320;51.498;6.556;2023-03-01T11:39:31;11.40;1.00
8565;DHT22;4320;51.498;6.556;2023-03-01T11:42:11;11.00;1.00
8565;DHT22;4320;51.498;6.556;2023-03-01T11:44:39;10.80;1.00
8565;DHT22;4320;51.498;6.556;2023-03-01T11:52:31;10.20;1.00
8565;DHT22;4320;51.498;6.556;2023-03-01T11:55:29;9.90;1.00
8565;DHT22;4320;51.498;6.556;2023-03-01T12:06:44;9.90;1.00
8565;DHT22;4320;51.498;6.556;2023-03-01T12:09:31;9.60;1.00
8565;DHT22;4320;51.498;6.556;2023-03-01T12:23:54;10.40;1.00
8565;DHT22;4320;51.498;6.556;2023-03-01T12:26:44;10.30;1.00
8565;DHT22;4320;51.498;6.556;2023-03-01T12:29:31;10.10;1.00
8565;DHT22;4320;51.498;6.556;2023-03-01T12:44:01;9.60;1.00
8565;DHT22;4320;51.498;6.556;2023-03-01T12:52:03;9.40;1.00
8565;DHT22;4320;51.498;6.556;2023-03-01T12:54:36;9.30;1.00
8565;DHT22;4320;51.498;6.556;2023-03-01T12:57:41;9.30;1.00
8565;DHT22;4320;51.498;6.556;2023-03-01T13:00:35;9.40;1.00
8565;DHT22;4320;51.498;6.556;2023-03-01T13:06:38;9.30;1.00
8565;DHT22;4320;51.498;6.556;2023-03-01T13:09:10;9.40;1.00
8565;DHT22;4320;51.498;6.556;2023-03-01T13:11:41;9.40;1.00
8565;DHT22;4320;51.498;6.556;2023-03-01T13:16:53;9.70;1.00
8565;DHT22;4320;51.498;6.556;2023-03-01T13:19:27;10.00;1.00
8565;DHT22;4320;51.498;6.556;2023-03-01T13:21:57;10.20;1.00
8565;DHT22;4320;51.498;6.556;2023-03-01T13:24:37;10.10;1.00
8565;DHT22;4320;51.498;6.556;2023-03-01T13:29:56;10.10;1.00
8565;DHT22;4320;51.498;6.556;2023-03-01T13:32:29;10.20;1.00
8565;DHT22;4320;51.498;6.556;2023-03-01T13:35:02;10.10;1.00
8565;DHT22;4320;51.498;6.556;2023-03-01T13:37:37;10.20;1.00
8565;DHT22;4320;51.498;6.556;2023-03-01T13:42:45;10.40;1.00
8565;DHT22;4320;51.498;6.556;2023-03-01T13:47:47;10.50;1.00
8565;DHT22;4320;51.498;6.556;2023-03-01T13:50:34;10.60;1.00
8565;DHT22;4320;51.498;6.556;2023-03-01T13:53:05;10.60;1.00
8565;DHT22;4320;51.498;6.556;2023-03-01T13:55:37;10.70;1.00
8565;DHT22;4320;51.498;6.556;2023-03-01T13:58:16;10.80;1.00
8565;DHT22;4320;51.498;6.556;2023-03-01T14:00:45;11.00;1.00
8565;DHT22;4320;51.498;6.556;2023-03-01T14:03:15;11.20;1.00
8565;DHT22;4320;51.498;6.556;2023-03-01T14:05:43;11.00;1.00
8565;DHT22;4320;51.498;6.556;2023-03-01T14:08:22;10.90;1.00
8565;DHT22;4320;51.498;6.556;2023-03-01T14:19:19;10.50;1.00
8565;DHT22;4320;51.498;6.556;2023-03-01T14:24:31;10.20;1.00
8565;DHT22;4320;51.498;6.556;2023-03-01T14:27:00;10.00;1.00
8565;DHT22;4320;51.498;6.556;2023-03-01T14:29:27;10.00;1.00
8565;DHT22;4320;51.498;6.556;2023-03-01T14:31:53;10.00;1.00
8565;DHT22;4320;51.498;6.556;2023-03-01T14:34:23;9.90;1.00
8565;DHT22;4320;51.498;6.556;2023-03-01T14:36:49;9.70;1.00
8565;DHT22;4320;51.498;6.556;2023-03-01T14:39:23;9.50;1.00
8565;DHT22;4320;51.498;6.556;2023-03-01T14:41:49;9.40;1.00
8565;DHT22;4320;51.498;6.556;2023-03-01T14:44:19;9.30;1.00
8565;DHT22;4320;51.498;6.556;2023-03-01T14:46:52;9.30;1.00
8565;DHT22;4320;51.498;6.556;2023-03-01T14:49:30;9.20;1.00
8565;DHT22;4320;51.498;6.556;2023-03-01T14:52:03;9.00;1.00
8565;DHT22;4320;51.498;6.556;2023-03-01T14:54:31;8.90;1.00
8565;DHT22;4320;51.498;6.556;2023-03-01T14:57:01;8.90;1.00
8565;DHT22;4320;51.498;6.556;2023-03-01T14:59:27;8.70;1.00
8565;DHT22;4320;51.498;6.556;2023-03-01T15:01:55;8.70;1.00
8565;DHT22;4320;51.498;6.556;2023-03-01T15:04:23;8.50;1.00
8565;DHT22;4320;51.498;6.556;2023-03-01T15:06:53;8.50;1.00
8565;DHT22;4320;51.498;6.556;2023-03-01T15:09:20;8.40;1.00
8565;DHT22;4320;51.498;6.556;2023-03-01T15:11:46;8.40;1.00
8565;DHT22;4320;51.498;6.556;2023-03-01T15:14:47;8.40;1.00
8565;DHT22;4320;51.498;6.556;2023-03-01T15:19:48;8.50;1.00
8565;DHT22;4320;51.498;6.556;2023-03-01T15:22:16;8.40;1.00
8565;DHT22;4320;51.498;6.556;2023-03-01T15:24:47;8.40;1.00
8565;DHT22;4320;51.498;6.556;2023-03-01T15:27:19;8.50;1.00
8565;DHT22;4320;51.498;6.556;2023-03-01T15:29:59;8.50;1.00
8565;DHT22;4320;51.498;6.556;2023-03-01T15:32:31;8.50;1.00
8565;DHT22;4320;51.498;6.556;2023-03-01T15:34:58;8.60;1.00
8565;DHT22;4320;51.498;6.556;2023-03-01T15:37:53;8.50;1.00
8565;DHT22;4320;51.498;6.556;2023-03-01T15:40:23;8.50;1.00
8565;DHT22;4320;51.498;6.556;2023-03-01T15:43:00;8.50;1.00
8565;DHT22;4320;51.498;6.556;2023-03-01T15:45:28;8.50;1.00
8565;DHT22;4320;51.498;6.556;2023-03-01T15:48:00;8.50;1.00
8565;DHT22;4320;51.498;6.556;2023-03-01T15:50:31;8.50;1.00
8565;DHT22;4320;51.498;6.556;2023-03-01T15:52:59;8.50;1.00
8565;DHT22;4320;51.498;6.556;2023-03-01T15:55:28;8.50;1.00
8565;DHT22;4320;51.498;6.556;2023-03-01T15:58:04;8.40;1.00
8565;DHT22;4320;51.498;6.556;2023-03-01T16:00:31;8.20;1.00
8565;DHT22;4320;51.498;6.556;2023-03-01T16:02:56;8.20;1.00
8565;DHT22;4320;51.498;6.556;2023-03-01T16:07:50;8.20;1.00
8565;DHT22;4320;51.498;6.556;2023-03-01T16:10:17;8.20;1.00
8565;DHT22;4320;51.498;6.556;2023-03-01T16:12:43;8.20;1.00
8565;DHT22;4320;51.498;6.556;2023-03-01T16:15:18;8.20;1.00
8565;DHT22;4320;51.498;6.556;2023-03-01T16:17:44;8.20;1.00
8565;DHT22;4320;51.498;6.556;2023-03-01T16:20:10;8.00;1.00
8565;DHT22;4320;51.498;6.556;2023-03-01T16:22:36;8.00;1.00
8565;DHT22;4320;51.498;6.556;2023-03-01T16:25:02;8.00;1.00
8565;DHT22;4320;51.498;6.556;2023-03-01T16:27:28;8.10;1.00
8565;DHT22;4320;51.498;6.556;2023-03-01T16:29:53;8.00;1.00
8565;DHT22;4320;51.498;6.556;2023-03-01T16:32:19;8.00;1.00
8565;DHT22;4320;51.498;6.556;2023-03-01T16:34:44;7.90;1.00
8565;DHT22;4320;51.498;6.556;2023-03-01T16:37:13;7.90;1.00
8565;DHT22;4320;51.498;6.556;2023-03-01T16:39:38;7.90;1.00
8565;DHT22;4320;51.498;6.556;2023-03-01T16:42:04;7.80;1.00
8565;DHT22;4320;51.498;6.556;2023-03-01T16:44:29;7.80;1.00
8565;DHT22;4320;51.498;6.556;2023-03-01T16:46:55;7.80;1.00
8565;DHT22;4320;51.498;6.556;2023-03-01T16:49:21;7.70;1.00
8565;DHT22;4320;51.498;6.556;2023-03-01T16:51:47;7.60;1.00
8565;DHT22;4320;51.498;6.556;2023-03-01T16:54:12;7.50;1.00
8565;DHT22;4320;51.498;6.556;2023-03-01T16:56:38;7.40;1.00
8565;DHT22;4320;51.498;6.556;2023-03-01T16:59:05;7.40;1.00
8565;DHT22;4320;51.498;6.556;2023-03-01T17:01:31;7.40;1.00
8565;DHT22;4320;51.498;6.556;2023-03-01T17:04:04;7.30;1.00
8565;DHT22;4320;51.498;6.556;2023-03-01T17:06:30;7.30;1.00
8565;DHT22;4320;51.498;6.556;2023-03-01T17:08:58;7.20;1.00
8565;DHT22;4320;51.498;6.556;2023-03-01T17:11:24;7.20;1.00
8565;DHT22;4320;51.498;6.556;2023-03-01T17:13:56;7.10;1.00
8565;DHT22;4320;51.498;6.556;2023-03-01T17:16:21;7.00;1.00
8565;DHT22;4320;51.498;6.556;2023-03-01T17:18:48;7.10;1.00
8565;DHT22;4320;51.498;6.556;2023-03-01T17:21:14;7.00;1.00
8565;DHT22;4320;51.498;6.556;2023-03-01T17:23:43;6.90;1.00
8565;DHT22;4320;51.498;6.556;2023-03-01T17:26:09;6.90;1.00
8565;DHT22;4320;51.498;6.556;2023-03-01T17:28:36;6.80;1.00
8565;DHT22;4320;51.498;6.556;2023-03-01T17:31:04;6.80;1.00
8565;DHT22;4320;51.498;6.556;2023-03-01T17:33:30;6.70;1.00
8565;DHT22;4320;51.498;6.556;2023-03-01T17:35:56;6.70;1.00
8565;DHT22;4320;51.498;6.556;2023-03-01T17:38:22;6.70;1.00
8565;DHT22;4320;51.498;6.556;2023-03-01T17:40:48;6.70;1.00
8565;DHT22;4320;51.498;6.556;2023-03-01T17:43:15;6.60;1.00
8565;DHT22;4320;51.498;6.556;2023-03-01T17:45:42;6.60;1.00
8565;DHT22;4320;51.498;6.556;2023-03-01T17:48:12;6.50;1.00
8565;DHT22;4320;51.498;6.556;2023-03-01T17:50:38;6.50;1.00
8565;DHT22;4320;51.498;6.556;2023-03-01T17:53:05;6.50;1.00
8565;DHT22;4320;51.498;6.556;2023-03-01T17:55:38;6.40;1.00
8565;DHT22;4320;51.498;6.556;2023-03-01T17:58:05;6.40;1.00
8565;DHT22;4320;51.498;6.556;2023-03-01T18:00:32;6.40;1.00
8565;DHT22;4320;51.498;6.556;2023-03-01T18:02:58;6.30;1.00
8565;DHT22;4320;51.498;6.556;2023-03-01T18:05:23;6.30;1.00
8565;DHT22;4320;51.498;6.556;2023-03-01T18:07:50;6.30;1.00
8565;DHT22;4320;51.498;6.556;2023-03-01T18:10:17;6.30;1.00
8565;DHT22;4320;51.498;6.556;2023-03-01T18:12:43;6.20;1.00
8565;DHT22;4320;51.498;6.556;2023-03-01T18:15:09;6.20;1.00
8565;DHT22;4320;51.498;6.556;2023-03-01T18:17:35;6.20;1.00
8565;DHT22;4320;51.498;6.556;2023-03-01T18:20:01;6.20;1.00
8565;DHT22;4320;51.498;6.556;2023-03-01T18:22:26;6.20;1.00
8565;DHT22;4320;51.498;6.556;2023-03-01T18:24:52;6.20;1.00
8565;DHT22;4320;51.498;6.556;2023-03-01T18:27:18;6.20;1.00
8565;DHT22;4320;51.498;6.556;2023-03-01T18:29:43;6.10;1.00
8565;DHT22;4320;51.498;6.556;2023-03-01T18:32:09;6.10;1.00